UAL1513 KPNS-KIAH
Flight info
| Callsign | UAL1513 |
|---|---|
| Flight time | 1h 15m |
| Altitude | 36000 |
| Route | KPNS 17 DCT JEPEG NNCEE2 KIAH I08L |
| Aircraft | B739/M-V/N |
Departure
| Time | 2026-04-22 17:54 |
|---|---|
| Airport | Pensacola International Airport (KPNS) |
Arrival
| Time | 2026-04-22 19:09 |
|---|---|
| Airport | George Bush Intercontinental Airport (KIAH) |
| Time | Latitude | Longitude | Altitude | Speed | Heading |
|---|---|---|---|---|---|
| 2026-04-22 17:42 | 30.47504 | -87.19319 | 130 ft | 0 kts | 28° |
| 2026-04-22 17:44 | 30.47492 | -87.19327 | 130 ft | 3 kts | 34° |
| 2026-04-22 17:44 | 30.47477 | -87.19342 | 130 ft | 3 kts | 50° |
| 2026-04-22 17:44 | 30.47469 | -87.19361 | 130 ft | 3 kts | 78° |
| 2026-04-22 17:44 | 30.47470 | -87.19378 | 130 ft | 2 kts | 116° |
| 2026-04-22 17:45 | 30.47472 | -87.19381 | 130 ft | 0 kts | 119° |
| 2026-04-22 17:46 | 30.47471 | -87.19380 | 130 ft | 0 kts | 119° |
| 2026-04-22 17:47 | 30.47455 | -87.19346 | 130 ft | 11 kts | 119° |
| 2026-04-22 17:47 | 30.47402 | -87.19254 | 130 ft | 15 kts | 108° |
| 2026-04-22 17:48 | 30.47407 | -87.19174 | 130 ft | 14 kts | 78° |
| 2026-04-22 17:48 | 30.47426 | -87.19061 | 130 ft | 7 kts | 99° |
| 2026-04-22 17:48 | 30.47442 | -87.19017 | 130 ft | 7 kts | 40° |
| 2026-04-22 17:48 | 30.47480 | -87.19009 | 130 ft | 5 kts | 359° |
| 2026-04-22 17:49 | 30.47510 | -87.19016 | 130 ft | 5 kts | 348° |
| 2026-04-22 17:49 | 30.47535 | -87.19022 | 130 ft | 6 kts | 347° |
| 2026-04-22 17:49 | 30.47586 | -87.19035 | 130 ft | 9 kts | 347° |
| 2026-04-22 17:49 | 30.47652 | -87.19053 | 130 ft | 11 kts | 347° |
| 2026-04-22 17:50 | 30.47762 | -87.19082 | 130 ft | 14 kts | 347° |
| 2026-04-22 17:50 | 30.47859 | -87.19109 | 130 ft | 15 kts | 347° |
| 2026-04-22 17:50 | 30.47926 | -87.19127 | 130 ft | 15 kts | 347° |
| 2026-04-22 17:50 | 30.48024 | -87.19153 | 130 ft | 14 kts | 347° |
| 2026-04-22 17:51 | 30.48120 | -87.19178 | 130 ft | 14 kts | 347° |
| 2026-04-22 17:51 | 30.48215 | -87.19203 | 130 ft | 14 kts | 349° |
| 2026-04-22 17:51 | 30.48257 | -87.19169 | 130 ft | 1 kts | 72° |
| 2026-04-22 17:52 | 30.48263 | -87.19147 | 130 ft | 7 kts | 75° |
| 2026-04-22 17:52 | 30.48273 | -87.19080 | 130 ft | 8 kts | 103° |
| 2026-04-22 17:52 | 30.48242 | -87.19055 | 130 ft | 5 kts | 164° |
| 2026-04-22 17:53 | 30.48205 | -87.19044 | 130 ft | 10 kts | 166° |
| 2026-04-22 17:53 | 30.48022 | -87.18993 | 130 ft | 56 kts | 167° |
| 2026-04-22 17:53 | 30.47379 | -87.18818 | 130 ft | 130 kts | 167° |
| 2026-04-22 17:53 | 30.46331 | -87.18535 | 373 ft | 168 kts | 167° |
| 2026-04-22 17:54 | 30.45152 | -87.18225 | 1218 ft | 181 kts | 165° |
| 2026-04-22 17:54 | 30.43855 | -87.17898 | 1760 ft | 202 kts | 166° |
| 2026-04-22 17:54 | 30.42494 | -87.17903 | 2179 ft | 193 kts | 191° |
| 2026-04-22 17:54 | 30.41511 | -87.18932 | 2645 ft | 203 kts | 240° |
| 2026-04-22 17:55 | 30.41495 | -87.20589 | 3189 ft | 216 kts | 287° |
| 2026-04-22 17:55 | 30.42455 | -87.21800 | 3698 ft | 219 kts | 332° |
| 2026-04-22 17:55 | 30.43776 | -87.22058 | 4212 ft | 216 kts | 4° |
| 2026-04-22 17:56 | 30.45239 | -87.21815 | 4764 ft | 215 kts | 11° |
| 2026-04-22 17:56 | 30.46724 | -87.21832 | 5208 ft | 215 kts | 347° |
| 2026-04-22 17:56 | 30.47877 | -87.22846 | 5693 ft | 212 kts | 300° |
| 2026-04-22 17:56 | 30.48075 | -87.24505 | 6208 ft | 215 kts | 255° |
| 2026-04-22 17:57 | 30.47428 | -87.26064 | 6741 ft | 222 kts | 234° |
| 2026-04-22 17:57 | 30.46602 | -87.27635 | 7210 ft | 230 kts | 240° |
| 2026-04-22 17:57 | 30.45990 | -87.29365 | 7667 ft | 234 kts | 248° |
| 2026-04-22 17:57 | 30.45499 | -87.31182 | 8126 ft | 238 kts | 251° |
| 2026-04-22 17:58 | 30.45072 | -87.33047 | 8585 ft | 241 kts | 253° |
| 2026-04-22 17:58 | 30.44670 | -87.34979 | 9054 ft | 255 kts | 255° |
| 2026-04-22 17:58 | 30.44254 | -87.37095 | 9561 ft | 291 kts | 256° |
| 2026-04-22 17:58 | 30.43790 | -87.39554 | 10103 ft | 319 kts | 257° |
| 2026-04-22 17:59 | 30.43333 | -87.42069 | 10589 ft | 317 kts | 257° |
| 2026-04-22 17:59 | 30.42887 | -87.44581 | 11060 ft | 321 kts | 258° |
| 2026-04-22 17:59 | 30.42437 | -87.47137 | 11518 ft | 325 kts | 258° |
| 2026-04-22 17:59 | 30.41988 | -87.49700 | 11990 ft | 325 kts | 259° |
| 2026-04-22 18:00 | 30.41690 | -87.51402 | 12324 ft | 324 kts | 259° |
| 2026-04-22 18:00 | 30.41098 | -87.54803 | 12988 ft | 326 kts | 259° |
| 2026-04-22 18:00 | 30.40650 | -87.57378 | 13489 ft | 326 kts | 260° |
| 2026-04-22 18:00 | 30.40200 | -87.59962 | 13991 ft | 328 kts | 260° |
| 2026-04-22 18:01 | 30.39749 | -87.62552 | 14492 ft | 329 kts | 260° |
| 2026-04-22 18:01 | 30.39294 | -87.65158 | 14994 ft | 330 kts | 260° |
| 2026-04-22 18:01 | 30.38838 | -87.67773 | 15496 ft | 332 kts | 260° |
| 2026-04-22 18:01 | 30.38379 | -87.70398 | 15997 ft | 333 kts | 260° |
| 2026-04-22 18:02 | 30.37916 | -87.73037 | 16499 ft | 335 kts | 260° |
| 2026-04-22 18:02 | 30.37449 | -87.75702 | 16851 ft | 342 kts | 260° |
| 2026-04-22 18:02 | 30.36971 | -87.78426 | 16947 ft | 346 kts | 260° |
| 2026-04-22 18:02 | 30.36491 | -87.81154 | 16958 ft | 345 kts | 260° |
| 2026-04-22 18:03 | 30.36013 | -87.83866 | 16957 ft | 343 kts | 260° |
| 2026-04-22 18:03 | 30.35536 | -87.86566 | 16956 ft | 343 kts | 260° |
| 2026-04-22 18:03 | 30.35056 | -87.89279 | 16956 ft | 343 kts | 259° |
| 2026-04-22 18:03 | 30.34585 | -87.91943 | 16957 ft | 342 kts | 260° |
| 2026-04-22 18:04 | 30.34112 | -87.94602 | 17361 ft | 333 kts | 260° |
| 2026-04-22 18:04 | 30.33646 | -87.97226 | 17857 ft | 335 kts | 260° |
| 2026-04-22 18:04 | 30.33174 | -87.99885 | 18360 ft | 339 kts | 260° |
| 2026-04-22 18:04 | 30.32697 | -88.02572 | 18862 ft | 342 kts | 260° |
| 2026-04-22 18:05 | 30.32215 | -88.05277 | 19364 ft | 344 kts | 260° |
| 2026-04-22 18:05 | 30.31730 | -88.07999 | 19865 ft | 346 kts | 260° |
| 2026-04-22 18:05 | 30.31242 | -88.10736 | 20366 ft | 349 kts | 259° |
| 2026-04-22 18:05 | 30.30750 | -88.13489 | 20867 ft | 350 kts | 260° |
| 2026-04-22 18:06 | 30.30255 | -88.16256 | 21369 ft | 352 kts | 259° |
| 2026-04-22 18:06 | 30.29755 | -88.19043 | 21874 ft | 354 kts | 260° |
| 2026-04-22 18:06 | 30.29253 | -88.21845 | 22378 ft | 357 kts | 259° |
| 2026-04-22 18:06 | 30.28745 | -88.24676 | 22882 ft | 360 kts | 259° |
| 2026-04-22 18:07 | 30.28234 | -88.27514 | 23383 ft | 362 kts | 259° |
| 2026-04-22 18:07 | 30.27719 | -88.30376 | 23885 ft | 364 kts | 259° |
| 2026-04-22 18:07 | 30.27201 | -88.33251 | 24386 ft | 366 kts | 259° |
| 2026-04-22 18:07 | 30.26678 | -88.36145 | 24887 ft | 369 kts | 259° |
| 2026-04-22 18:08 | 30.26151 | -88.39058 | 25389 ft | 371 kts | 259° |
| 2026-04-22 18:08 | 30.25619 | -88.41993 | 25892 ft | 374 kts | 259° |
| 2026-04-22 18:08 | 30.25083 | -88.44949 | 26395 ft | 376 kts | 259° |
| 2026-04-22 18:08 | 30.24543 | -88.47923 | 26897 ft | 379 kts | 259° |
| 2026-04-22 18:09 | 30.24001 | -88.50907 | 27398 ft | 381 kts | 259° |
| 2026-04-22 18:09 | 30.23453 | -88.53919 | 27900 ft | 383 kts | 259° |
| 2026-04-22 18:09 | 30.22900 | -88.56948 | 28401 ft | 386 kts | 260° |
| 2026-04-22 18:09 | 30.22344 | -88.59998 | 28903 ft | 389 kts | 260° |
| 2026-04-22 18:10 | 30.22162 | -88.60992 | 29066 ft | 390 kts | 260° |
| 2026-04-22 18:10 | 30.21222 | -88.66135 | 29902 ft | 395 kts | 259° |
| 2026-04-22 18:10 | 30.20652 | -88.69247 | 30404 ft | 397 kts | 259° |
| 2026-04-22 18:10 | 30.20077 | -88.72379 | 30904 ft | 399 kts | 259° |
| 2026-04-22 18:11 | 30.19497 | -88.75531 | 31406 ft | 401 kts | 259° |
| 2026-04-22 18:11 | 30.18914 | -88.78696 | 31907 ft | 402 kts | 259° |
| 2026-04-22 18:11 | 30.18330 | -88.81863 | 32406 ft | 403 kts | 259° |
| 2026-04-22 18:11 | 30.17744 | -88.85032 | 32905 ft | 403 kts | 259° |
| 2026-04-22 18:12 | 30.17158 | -88.88198 | 33404 ft | 403 kts | 259° |
| 2026-04-22 18:12 | 30.16572 | -88.91361 | 33903 ft | 402 kts | 259° |
| 2026-04-22 18:12 | 30.16182 | -88.93459 | 34234 ft | 401 kts | 259° |
| 2026-04-22 18:12 | 30.15402 | -88.97657 | 34900 ft | 399 kts | 259° |
| 2026-04-22 18:13 | 30.14820 | -89.00780 | 35396 ft | 396 kts | 259° |
| 2026-04-22 18:13 | 30.14242 | -89.03881 | 35893 ft | 394 kts | 259° |
| 2026-04-22 18:13 | 30.13751 | -89.06512 | 36187 ft | 395 kts | 259° |
| 2026-04-22 18:14 | 30.12531 | -89.13057 | 36250 ft | 413 kts | 259° |
| 2026-04-22 18:14 | 30.11302 | -89.19640 | 36243 ft | 429 kts | 259° |
| 2026-04-22 18:15 | 30.10025 | -89.26453 | 36240 ft | 437 kts | 259° |
| 2026-04-22 18:15 | 30.08732 | -89.33306 | 36238 ft | 437 kts | 259° |
| 2026-04-22 18:16 | 30.07436 | -89.40151 | 36238 ft | 436 kts | 259° |
| 2026-04-22 18:16 | 30.06138 | -89.46989 | 36237 ft | 435 kts | 259° |
| 2026-04-22 18:17 | 30.04837 | -89.53819 | 36233 ft | 435 kts | 259° |
| 2026-04-22 18:17 | 30.03534 | -89.60646 | 36231 ft | 435 kts | 259° |
| 2026-04-22 18:18 | 30.02238 | -89.67412 | 36229 ft | 434 kts | 259° |
| 2026-04-22 18:18 | 30.00933 | -89.74212 | 36228 ft | 434 kts | 259° |
| 2026-04-22 18:19 | 29.99624 | -89.81007 | 36227 ft | 433 kts | 259° |
| 2026-04-22 18:19 | 29.98392 | -89.87388 | 36226 ft | 433 kts | 259° |
| 2026-04-22 18:20 | 29.97083 | -89.94149 | 36226 ft | 432 kts | 259° |
| 2026-04-22 18:20 | 29.95771 | -90.00910 | 36226 ft | 432 kts | 259° |
| 2026-04-22 18:21 | 29.94460 | -90.07645 | 36225 ft | 432 kts | 259° |
| 2026-04-22 18:21 | 29.93141 | -90.14399 | 36223 ft | 432 kts | 259° |
| 2026-04-22 18:22 | 29.91817 | -90.21161 | 36221 ft | 432 kts | 259° |
| 2026-04-22 18:22 | 29.90490 | -90.27919 | 36220 ft | 432 kts | 259° |
| 2026-04-22 18:23 | 29.89158 | -90.34681 | 36220 ft | 432 kts | 259° |
| 2026-04-22 18:23 | 29.87826 | -90.41428 | 36222 ft | 432 kts | 258° |
| 2026-04-22 18:24 | 29.85831 | -90.51493 | 36225 ft | 432 kts | 258° |
| 2026-04-22 18:25 | 29.83817 | -90.61610 | 36228 ft | 432 kts | 258° |
| 2026-04-22 18:25 | 29.82472 | -90.68347 | 36229 ft | 432 kts | 258° |
| 2026-04-22 18:26 | 29.80492 | -90.78225 | 36228 ft | 432 kts | 258° |
| 2026-04-22 18:26 | 29.79138 | -90.84957 | 36227 ft | 432 kts | 258° |
| 2026-04-22 18:27 | 29.77776 | -90.91709 | 36225 ft | 432 kts | 258° |
| 2026-04-22 18:27 | 29.76581 | -90.97620 | 36223 ft | 432 kts | 258° |
| 2026-04-22 18:28 | 29.75223 | -91.04315 | 36218 ft | 432 kts | 258° |
| 2026-04-22 18:28 | 29.73852 | -91.11058 | 36215 ft | 432 kts | 258° |
| 2026-04-22 18:29 | 29.72479 | -91.17794 | 36211 ft | 433 kts | 258° |
| 2026-04-22 18:29 | 29.71100 | -91.24538 | 36210 ft | 433 kts | 258° |
| 2026-04-22 18:30 | 29.69026 | -91.34648 | 36209 ft | 433 kts | 258° |
| 2026-04-22 18:31 | 29.67638 | -91.41391 | 36209 ft | 433 kts | 258° |
| 2026-04-22 18:31 | 29.66253 | -91.48101 | 36209 ft | 434 kts | 258° |
| 2026-04-22 18:32 | 29.65083 | -91.53755 | 36207 ft | 434 kts | 258° |
| 2026-04-22 18:32 | 29.63454 | -91.61608 | 36205 ft | 434 kts | 258° |
| 2026-04-22 18:33 | 29.62048 | -91.68366 | 36202 ft | 434 kts | 258° |
| 2026-04-22 18:33 | 29.60638 | -91.75123 | 36199 ft | 435 kts | 257° |
| 2026-04-22 18:34 | 29.59224 | -91.81877 | 36198 ft | 435 kts | 257° |
| 2026-04-22 18:34 | 29.58045 | -91.87499 | 36194 ft | 435 kts | 257° |
| 2026-04-22 18:35 | 29.56622 | -91.94266 | 36183 ft | 435 kts | 257° |
| 2026-04-22 18:35 | 29.55198 | -92.01021 | 36181 ft | 435 kts | 257° |
| 2026-04-22 18:36 | 29.53769 | -92.07781 | 36178 ft | 436 kts | 257° |
| 2026-04-22 18:36 | 29.52409 | -92.14200 | 36175 ft | 436 kts | 257° |
| 2026-04-22 18:37 | 29.50971 | -92.20964 | 36174 ft | 436 kts | 257° |
| 2026-04-22 18:37 | 29.49539 | -92.27684 | 36173 ft | 436 kts | 257° |
| 2026-04-22 18:38 | 29.48094 | -92.34450 | 36171 ft | 437 kts | 257° |
| 2026-04-22 18:38 | 29.46635 | -92.41269 | 36168 ft | 437 kts | 258° |
| 2026-04-22 18:39 | 29.45809 | -92.51597 | 36172 ft | 436 kts | 270° |
| 2026-04-22 18:39 | 29.46018 | -92.58554 | 36166 ft | 436 kts | 273° |
| 2026-04-22 18:40 | 29.46388 | -92.65505 | 36160 ft | 436 kts | 274° |
| 2026-04-22 18:40 | 29.46786 | -92.72456 | 36157 ft | 436 kts | 274° |
| 2026-04-22 18:41 | 29.47168 | -92.79413 | 36155 ft | 436 kts | 273° |
| 2026-04-22 18:41 | 29.47499 | -92.85885 | 36153 ft | 437 kts | 273° |
| 2026-04-22 18:42 | 29.47833 | -92.92860 | 36150 ft | 437 kts | 273° |
| 2026-04-22 18:42 | 29.48147 | -92.99830 | 36149 ft | 437 kts | 273° |
| 2026-04-22 18:43 | 29.48447 | -93.06802 | 36148 ft | 438 kts | 273° |
| 2026-04-22 18:43 | 29.48735 | -93.13789 | 36147 ft | 438 kts | 273° |
| 2026-04-22 18:44 | 29.48969 | -93.19594 | 36146 ft | 439 kts | 273° |
| 2026-04-22 18:45 | 29.49555 | -93.34503 | 36143 ft | 440 kts | 273° |
| 2026-04-22 18:45 | 29.49824 | -93.41522 | 36146 ft | 440 kts | 272° |
| 2026-04-22 18:46 | 29.50090 | -93.48548 | 36152 ft | 441 kts | 272° |
| 2026-04-22 18:46 | 29.50352 | -93.55581 | 36068 ft | 443 kts | 272° |
| 2026-04-22 18:47 | 29.50485 | -93.59153 | 35693 ft | 451 kts | 272° |
| 2026-04-22 18:47 | 29.50617 | -93.62767 | 35258 ft | 455 kts | 272° |
| 2026-04-22 18:47 | 29.50748 | -93.66370 | 34811 ft | 451 kts | 272° |
| 2026-04-22 18:47 | 29.50878 | -93.69964 | 34358 ft | 446 kts | 272° |
| 2026-04-22 18:48 | 29.51004 | -93.73510 | 33906 ft | 442 kts | 272° |
| 2026-04-22 18:48 | 29.51045 | -93.74646 | 33760 ft | 441 kts | 272° |
| 2026-04-22 18:48 | 29.51254 | -93.80594 | 32993 ft | 435 kts | 272° |
| 2026-04-22 18:49 | 29.51375 | -93.84051 | 32542 ft | 432 kts | 273° |
| 2026-04-22 18:49 | 29.51493 | -93.87474 | 32093 ft | 428 kts | 273° |
| 2026-04-22 18:49 | 29.51610 | -93.90885 | 31640 ft | 424 kts | 273° |
| 2026-04-22 18:49 | 29.51726 | -93.94260 | 31189 ft | 421 kts | 273° |
| 2026-04-22 18:50 | 29.51842 | -93.97602 | 30738 ft | 417 kts | 273° |
| 2026-04-22 18:50 | 29.51956 | -94.00910 | 30288 ft | 413 kts | 273° |
| 2026-04-22 18:50 | 29.52069 | -94.04191 | 29837 ft | 410 kts | 273° |
| 2026-04-22 18:50 | 29.52180 | -94.07448 | 29386 ft | 406 kts | 273° |
| 2026-04-22 18:51 | 29.52290 | -94.10672 | 28935 ft | 403 kts | 273° |
| 2026-04-22 18:51 | 29.52398 | -94.13876 | 28484 ft | 399 kts | 273° |
| 2026-04-22 18:51 | 29.52503 | -94.17010 | 28037 ft | 396 kts | 273° |
| 2026-04-22 18:51 | 29.52607 | -94.20155 | 27587 ft | 393 kts | 273° |
| 2026-04-22 18:52 | 29.52710 | -94.23283 | 27135 ft | 390 kts | 273° |
| 2026-04-22 18:52 | 29.52859 | -94.26388 | 26683 ft | 387 kts | 277° |
| 2026-04-22 18:52 | 29.53358 | -94.29405 | 26215 ft | 384 kts | 285° |
| 2026-04-22 18:52 | 29.54155 | -94.32306 | 25669 ft | 376 kts | 290° |
| 2026-04-22 18:53 | 29.55128 | -94.35070 | 25099 ft | 369 kts | 293° |
| 2026-04-22 18:53 | 29.56197 | -94.37721 | 24524 ft | 362 kts | 295° |
| 2026-04-22 18:53 | 29.57310 | -94.40287 | 23949 ft | 356 kts | 296° |
| 2026-04-22 18:53 | 29.58438 | -94.42800 | 23353 ft | 352 kts | 296° |
| 2026-04-22 18:54 | 29.59566 | -94.45287 | 22679 ft | 349 kts | 296° |
| 2026-04-22 18:54 | 29.60677 | -94.47768 | 21983 ft | 348 kts | 296° |
| 2026-04-22 18:54 | 29.61763 | -94.50241 | 21285 ft | 347 kts | 296° |
| 2026-04-22 18:54 | 29.62825 | -94.52691 | 20593 ft | 345 kts | 296° |
| 2026-04-22 18:55 | 29.63889 | -94.55164 | 19892 ft | 344 kts | 295° |
| 2026-04-22 18:55 | 29.64945 | -94.57629 | 19195 ft | 343 kts | 295° |
| 2026-04-22 18:55 | 29.65996 | -94.60087 | 18495 ft | 341 kts | 295° |
| 2026-04-22 18:55 | 29.67040 | -94.62532 | 17798 ft | 340 kts | 295° |
| 2026-04-22 18:56 | 29.69114 | -94.67395 | 16398 ft | 338 kts | 295° |
| 2026-04-22 18:56 | 29.70034 | -94.69553 | 15775 ft | 337 kts | 295° |
| 2026-04-22 18:56 | 29.71063 | -94.71963 | 15076 ft | 336 kts | 295° |
| 2026-04-22 18:57 | 29.72109 | -94.74418 | 14378 ft | 349 kts | 295° |
| 2026-04-22 18:57 | 29.73212 | -94.77011 | 13696 ft | 387 kts | 295° |
| 2026-04-22 18:57 | 29.74474 | -94.79987 | 13005 ft | 441 kts | 295° |
| 2026-04-22 18:57 | 29.75887 | -94.83321 | 12295 ft | 479 kts | 295° |
| 2026-04-22 18:58 | 29.77341 | -94.86740 | 11572 ft | 461 kts | 295° |
| 2026-04-22 18:58 | 29.78693 | -94.89902 | 10867 ft | 420 kts | 295° |
| 2026-04-22 18:58 | 29.79937 | -94.92814 | 10155 ft | 391 kts | 295° |
| 2026-04-22 18:58 | 29.81101 | -94.95550 | 9446 ft | 369 kts | 295° |
| 2026-04-22 18:59 | 29.82192 | -94.98119 | 8749 ft | 354 kts | 295° |
| 2026-04-22 18:59 | 29.83259 | -95.00640 | 8040 ft | 341 kts | 295° |
| 2026-04-22 18:59 | 29.84284 | -95.03069 | 7335 ft | 331 kts | 295° |
| 2026-04-22 18:59 | 29.85257 | -95.05380 | 6986 ft | 313 kts | 294° |
| 2026-04-22 19:00 | 29.86137 | -95.07544 | 6981 ft | 286 kts | 292° |
| 2026-04-22 19:00 | 29.86856 | -95.09559 | 6980 ft | 262 kts | 289° |
| 2026-04-22 19:00 | 29.87446 | -95.11477 | 6981 ft | 240 kts | 286° |
| 2026-04-22 19:00 | 29.87911 | -95.13228 | 7017 ft | 218 kts | 284° |
| 2026-04-22 19:01 | 29.88289 | -95.14854 | 7000 ft | 202 kts | 282° |
| 2026-04-22 19:01 | 29.88620 | -95.16418 | 6671 ft | 203 kts | 281° |
| 2026-04-22 19:01 | 29.88974 | -95.18007 | 6297 ft | 206 kts | 287° |
| 2026-04-22 19:01 | 29.89729 | -95.19421 | 5920 ft | 210 kts | 310° |
| 2026-04-22 19:02 | 29.90800 | -95.20585 | 5566 ft | 213 kts | 318° |
| 2026-04-22 19:02 | 29.91959 | -95.21662 | 5197 ft | 216 kts | 321° |
| 2026-04-22 19:02 | 29.93155 | -95.22721 | 4830 ft | 218 kts | 322° |
| 2026-04-22 19:02 | 29.94368 | -95.23782 | 4461 ft | 220 kts | 322° |
| 2026-04-22 19:03 | 29.95591 | -95.24858 | 4137 ft | 220 kts | 322° |
| 2026-04-22 19:03 | 29.96783 | -95.25908 | 4014 ft | 209 kts | 322° |
| 2026-04-22 19:03 | 29.97894 | -95.26891 | 3987 ft | 193 kts | 322° |
| 2026-04-22 19:03 | 29.98917 | -95.27799 | 3958 ft | 179 kts | 322° |
| 2026-04-22 19:04 | 29.99879 | -95.28654 | 3980 ft | 173 kts | 322° |
| 2026-04-22 19:04 | 30.00825 | -95.29497 | 3955 ft | 172 kts | 322° |
| 2026-04-22 19:04 | 30.01815 | -95.30382 | 3612 ft | 190 kts | 322° |
| 2026-04-22 19:04 | 30.02905 | -95.31357 | 3252 ft | 205 kts | 322° |
| 2026-04-22 19:05 | 30.04075 | -95.32401 | 2876 ft | 220 kts | 322° |
| 2026-04-22 19:05 | 30.05288 | -95.33484 | 2599 ft | 218 kts | 322° |
| 2026-04-22 19:05 | 30.06017 | -95.34136 | 2529 ft | 210 kts | 322° |
| 2026-04-22 19:05 | 30.07136 | -95.35136 | 2481 ft | 198 kts | 322° |
| 2026-04-22 19:06 | 30.08212 | -95.36108 | 2488 ft | 193 kts | 320° |
| 2026-04-22 19:06 | 30.09019 | -95.37284 | 2446 ft | 184 kts | 289° |
| 2026-04-22 19:06 | 30.09086 | -95.38659 | 2496 ft | 166 kts | 255° |
| 2026-04-22 19:07 | 30.07295 | -95.39900 | 2553 ft | 165 kts | 185° |
| 2026-04-22 19:07 | 30.06119 | -95.40010 | 2551 ft | 172 kts | 181° |
| 2026-04-22 19:07 | 30.04934 | -95.39899 | 2621 ft | 171 kts | 169° |
| 2026-04-22 19:07 | 30.03871 | -95.39433 | 2391 ft | 159 kts | 147° |
| 2026-04-22 19:08 | 30.03000 | -95.38619 | 1734 ft | 166 kts | 146° |
| 2026-04-22 19:08 | 30.01922 | -95.38076 | 1187 ft | 166 kts | 159° |
| 2026-04-22 19:08 | 30.00956 | -95.37512 | 825 ft | 155 kts | 148° |
| 2026-04-22 19:08 | 30.00037 | -95.36900 | 477 ft | 151 kts | 150° |
| 2026-04-22 19:09 | 29.99119 | -95.36333 | 221 ft | 148 kts | 152° |
| 2026-04-22 19:09 | 29.98224 | -95.35800 | 107 ft | 136 kts | 153° |
| 2026-04-22 19:09 | 29.97767 | -95.35530 | 106 ft | 120 kts | 152° |
| 2026-04-22 19:09 | 29.97080 | -95.35100 | 106 ft | 35 kts | 150° |
| 2026-04-22 19:10 | 29.97019 | -95.34963 | 106 ft | 18 kts | 99° |
| 2026-04-22 19:10 | 29.97007 | -95.34913 | 106 ft | 3 kts | 107° |
| 2026-04-22 19:10 | 29.97019 | -95.34891 | 106 ft | 7 kts | 12° |
| 2026-04-22 19:10 | 29.97076 | -95.34918 | 106 ft | 9 kts | 335° |
| 2026-04-22 19:11 | 29.97146 | -95.34922 | 106 ft | 11 kts | 26° |
| 2026-04-22 19:11 | 29.97223 | -95.34874 | 106 ft | 14 kts | 27° |
| 2026-04-22 19:11 | 29.97322 | -95.34880 | 106 ft | 16 kts | 342° |
| 2026-04-22 19:11 | 29.97440 | -95.34893 | 106 ft | 18 kts | 2° |
| 2026-04-22 19:12 | 29.97577 | -95.34888 | 106 ft | 21 kts | 1° |
| 2026-04-22 19:12 | 29.97723 | -95.34918 | 106 ft | 22 kts | 329° |
| 2026-04-22 19:12 | 29.97865 | -95.35012 | 106 ft | 25 kts | 331° |
| 2026-04-22 19:12 | 29.98023 | -95.35112 | 106 ft | 26 kts | 331° |
| 2026-04-22 19:13 | 29.98130 | -95.35152 | 106 ft | 9 kts | 51° |
| 2026-04-22 19:13 | 29.98165 | -95.35083 | 106 ft | 10 kts | 32° |
| 2026-04-22 19:13 | 29.98188 | -95.35081 | 106 ft | 10 kts | 341° |
| 2026-04-22 19:13 | 29.98321 | -95.35159 | 106 ft | 14 kts | 333° |
| 2026-04-22 19:14 | 29.98382 | -95.35187 | 106 ft | 4 kts | 23° |
| 2026-04-22 19:14 | 29.98384 | -95.35159 | 106 ft | 7 kts | 98° |
| 2026-04-22 19:14 | 29.98390 | -95.35113 | 106 ft | 4 kts | 15° |
| 2026-04-22 19:14 | 29.98443 | -95.35114 | 106 ft | 12 kts | 358° |
| 2026-04-22 19:15 | 29.98499 | -95.35116 | 106 ft | 7 kts | 358° |
| 2026-04-22 19:15 | 29.98512 | -95.35117 | 106 ft | 0 kts | 0° |